Aeroporto :
LOGIN :

Iscrizione | Disclaimer

   EN    FR    IT 

 










Sommario :    VFR   VFR Marginale   IFR   IFR Intensivo   IFR Molto Intensivo
Visibilità : 
Base nubi : 
>= 8 km
>= 3000ft
5 / 8 km
1000 / 3000 ft
1500m / 5 km
500 / 1000 ft
800 / 1500m
200 / 500 ft
< 800m
< 200 ft
Simboli :   Temporali  Nebbia  Neve Forte  Precipitazioni Forti  Vento > 20 kt
SIGMETs :   Varie  Temporali  Ghiacco  Turbolenza  Onda orograficha  Ceneri Vulcaniche






- Altitudine del aeroporto : 1548 ft


LKNA - Náměšť Air Base

ULTIMO METAR :
  • 180500Z VRB02KT CAVOK 17/14 Q1018

METARs OBSOLETI :
  • 180400Z 06005KT CAVOK 17/14 Q1018
  • 180330Z 36005KT CAVOK 16/14 Q1017 RMK BLACK
  • 180300Z 35005KT CAVOK 16/14 Q1018 RMK BLACK
  • 180230Z 35004KT CAVOK 16/14 Q1017 RMK BLACK
  • 180200Z 34004KT CAVOK 16/15 Q1017 RMK BLACK
  • 180130Z 34004KT CAVOK 17/14 Q1018 RMK BLACK
  • 180100Z 36003KT CAVOK 17/14 Q1018 RMK BLACK
  • 180030Z 32004KT CAVOK 17/15 Q1017 RMK BLACK

TAF TAF LKNA
Valido dal 18 a 00 ore il 19 a 00 ore UTC


172300Z 1800/1900 03006KT CAVOK
PROB30
TEMPO 1800/1803 8000 SHRA SCT035TCU
BECMG 1807/1809 14008KT



MetMap, La meteo Aeronautica in un colpo d'occhio ! - Copyright ORBIFLY Dicembre 2007 - Disclaimer

ORBIFLY MET'MAP TEAM :

Programmazione e sviluppo : Alexandra Zaïnal
Concezione : Baudouin d'Aumeries
Supporto tecnico e logistico : Manuel Goepfert
Aiuto : Marc-Olivier Méhu
Aiuto per la traduzione : Arnaldo La Scala




FONTI E CREDITI :

   NOAA